Statewide Weather Sensors

Route Weather Station Name Milepost Date / Time Surface Status Surface Temp Precip Intensity Wind Avg Wind Gust Dir Dewpoint Humidity Air Temp Visibility
I 25 Wyo Hill 3.52 Apr 22, 2024, 12:06 AM     None None 10 mph 12 mph SW 33.8°F 71% 42.8°F > 1/2 mi
I 25 Whitaker 28.1 Apr 22, 2024, 12:06 AM N/A   None None 14 mph 16 mph SW 28.4°F 47% 46.4°F > 1/2 mi
I 25 Bear Creek 46.77 Apr 22, 2024, 12:06 AM Dry 50.5°F None None 18 mph 24 mph SW 24.8°F 36% 51.8°F > 1/2 mi
I 25 Bordeaux 70.8 Apr 22, 2024, 12:06 AM Dry 55.6°F None None 24 mph 31 mph SW 24.8°F 27% 59.0°F > 1/2 mi
I 25 Coleman 98.7 Apr 22, 2024, 12:06 AM Dry 51.8°F None None 9 mph 18 mph W 30.2°F 35% 57.2°F > 1/2 mi
I 25 Platte/Converse County Line 119.9 Apr 22, 2024, 12:06 AM     None None 7 mph 12 mph SE 30.2°F 47% 50.0°F > 1/2 mi
I 25 Deer Creek 164.2 Apr 22, 2024, 12:06 AM Dry 52.9°F None None 0 mph 3 mph N 28.4°F 39% 53.6°F > 1/2 mi
I 25 Hat Six 181.67 Apr 22, 2024, 12:06 AM Dry 52.9°F None None 12 mph 25 mph W 28.4°F 29% 59.0°F > 1/2 mi
I 25 F Street Hill 189.51 Apr 22, 2024, 12:06 AM Dry 53.2°F None None 15 mph 22 mph SW 24.8°F 30% 55.4°F > 1/2 mi
I 25 Twenty Mile Hill 207.2 Apr 22, 2024, 12:06 AM N/A   None None 14 mph 17 mph SW 26.6°F 40% 50.0°F > 1/2 mi
I 25 Smokey Gap 228.58 Apr 22, 2024, 12:06 AM Dry 48.4°F None None 12 mph 15 mph S 28.4°F 44% 50.0°F > 1/2 mi
I 25 Tisdale 238.87 Feb 21, 2024, 11:42 PM                      
I 25 I-25 Divide 267.3 Apr 22, 2024, 12:06 AM Dry 50.4°F None None 12 mph 25 mph N 30.2°F 43% 51.8°F > 1/2 mi
I 80 Evanston POE 0.06 Apr 22, 2024, 12:06 AM Dry 41.7°F None None 5 mph 12 mph SW 26.6°F 60% 39.2°F > 1/2 mi
I 80 Evanston 4.2 Apr 22, 2024, 12:06 AM N/A   None None 7 mph 9 mph S 26.6°F 50% 44.6°F > 1/2 mi
I 80 Bear River Drive 6.94 Apr 22, 2024, 12:06 AM Dry 47.7°F None None 7 mph 8 mph E 26.6°F 62% 37.4°F > 1/2 mi
I 80 Painter 10.16 Apr 22, 2024, 12:06 AM Dry 47.1°F None 7 mph 8 mph NE   NaN%    
I 80 First Divide 13.86 Apr 22, 2024, 12:06 AM Dry 47.5°F None None 4 mph 7 mph W 24.8°F 46% 42.8°F > 1/2 mi
I 80 US 189 Interchange 17.66 Apr 22, 2024, 12:06 AM Dry 49.6°F None None 7 mph 9 mph W 26.6°F 49% 44.6°F > 1/2 mi
I 80 Coal Road 20.95 Apr 22, 2024, 12:06 AM Dry 49.3°F None None 3 mph 5 mph NW 24.8°F 46% 44.6°F > 1/2 mi
I 80 Leroy 23.35 Apr 22, 2024, 12:06 AM Dry 49.6°F None None 7 mph 11 mph W 26.6°F 42% 48.2°F > 1/2 mi
I 80 French 27.6 Apr 22, 2024, 12:06 AM Dry 49.6°F None None 7 mph 11 mph W 26.6°F 48% 44.6°F > 1/2 mi
I 80 Church Butte 52.65 Apr 22, 2024, 12:06 AM Dry 49.5°F None None 7 mph 11 mph S 24.8°F 44% 44.6°F > 1/2 mi
I 80 Peru Hill 82.31 Apr 22, 2024, 12:06 AM Dry 50.5°F None None 2 mph 4 mph S 21.2°F 38% 46.4°F > 1/2 mi
I 80 Green River Tunnel 90.5 Apr 22, 2024, 12:06 AM Dry 54.1°F None None 2 mph 5 mph SW 23.0°F 34% 50.0°F > 1/2 mi
I 80 Rock Springs West 97.9 Apr 22, 2024, 12:06 AM N/A   None None 9 mph 11 mph W 23.0°F 33% 50.0°F > 1/2 mi
I 80 Baxter Road 111.5 Apr 22, 2024, 12:06 AM Dry 48.0°F None None 7 mph 9 mph SW -13.0°F 32% 10.4°F > 1/2 mi
I 80 Mile Marker 124.5 124.5 Apr 22, 2024, 12:06 AM Dry 49.5°F None None 10 mph 14 mph W 23.0°F 34% 50.0°F > 1/2 mi
I 80 Point of Rocks 129.8 Apr 22, 2024, 12:06 AM Dry 46.0°F None None 2 mph 6 mph NW 23.0°F 44% 42.8°F > 1/2 mi
I 80 Black Butte 134.91 Apr 22, 2024, 12:06 AM Dry 45.0°F None None 2 mph 11 mph W 23.0°F 37% 48.2°F > 1/2 mi
I 80 Bitter Creek 141.83 Apr 22, 2024, 12:06 AM Dry 43.0°F None None 9 mph 7 mph W 21.2°F 35% 46.4°F > 1/2 mi
I 80 Tipton 156.72 Apr 22, 2024, 12:06 AM Wet 48.7°F None None 0 mph 0 mph SW 21.2°F 33% 48.2°F > 1/2 mi
I 80 Continental Divide 184.3 Apr 22, 2024, 12:06 AM Dry 46.2°F None None 12 mph 14 mph SW 21.2°F 42% 42.8°F > 1/2 mi
I 80 Sinclair 221.7 Apr 22, 2024, 12:06 AM Dry 48.7°F None None 7 mph 14 mph W 23.0°F 32% 50.0°F > 1/2 mi
I 80 Walcott Junction 234.66 Apr 22, 2024, 12:06 AM Dry 49.5°F None None 19 mph 22 mph SW 23.0°F 34% 50.0°F > 1/2 mi
I 80 Dana Ridge 244.8 Apr 22, 2024, 12:06 AM Dry 47.5°F None None 17 mph 24 mph SW 23.0°F 40% 46.4°F > 1/2 mi
I 80 Mile Marker 249.1 249.1 Apr 22, 2024, 12:06 AM Dry 48.2°F None None 22 mph 29 mph NW 23.0°F 34% 50.0°F > 1/2 mi
I 80 Halleck Ridge 252.16 Apr 22, 2024, 12:06 AM Dry 49.5°F None None 32 mph 41 mph SW 21.2°F 32% 50.0°F > 1/2 mi
I 80 Elk Mountain 256.17 Apr 22, 2024, 12:06 AM Dry 48.9°F None None 19 mph 30 mph SW 21.2°F 31% 50.0°F > 1/2 mi
I 80 County Road 402 262 Apr 22, 2024, 12:06 AM N/A   None None 21 mph 33 mph SW 23.0°F 34% 50.0°F > 1/2 mi
I 80 Wagonhound 266.58 Apr 22, 2024, 12:06 AM Dry 44.6°F None None 22 mph 24 mph SW 23.0°F 38% 48.2°F > 1/2 mi
I 80 Foote Creek 269.5 Apr 22, 2024, 12:06 AM Dry 46.6°F None None 24 mph 36 mph SW 23.0°F 36% 48.2°F > 1/2 mi
I 80 Arlington 271.8 Apr 22, 2024, 12:06 AM Dry 45.9°F None None 29 mph 37 mph W 21.2°F 33% 50.0°F > 1/2 mi
I 80 Arlington East 273.85 Apr 22, 2024, 12:06 AM Dry 46.8°F None None 20 mph 41 mph W 21.2°F 32% 50.0°F > 1/2 mi
I 80 Cooper Cove 279.36 Apr 22, 2024, 12:06 AM Dry 42.8°F None None 21 mph 39 mph S 24.8°F 34% 51.8°F > 1/2 mi
I 80 Strouss Hill 283.75 Apr 22, 2024, 12:06 AM N/A   None None 12 mph 23 mph W 21.2°F 30% 51.8°F > 1/2 mi
I 80 Quealy Dome 289.5 Apr 22, 2024, 12:06 AM Dry 47.1°F None None 11 mph 16 mph S 23.0°F 34% 50.0°F > 1/2 mi
I 80 Herrick Lane 297.66 Apr 22, 2024, 12:06 AM Dry 47.7°F None None 16 mph 24 mph S 23.0°F 35% 50.0°F > 1/2 mi
I 80 Summit East 325.8 Apr 22, 2024, 12:06 AM Dry 36.5°F None None 21 mph 30 mph SW 19.4°F 35% 44.6°F > 1/2 mi
I 80 Vedauwoo 329.4 Apr 22, 2024, 12:06 AM Dry 36.9°F None None 22 mph 30 mph SW 21.2°F 36% 44.6°F > 1/2 mi
I 80 Lone Tree 333.32 Apr 22, 2024, 12:06 AM Dry 41.9°F None None 15 mph 19 mph SW 23.0°F 39% 46.4°F > 1/2 mi
I 80 Buford East 336.1 Apr 22, 2024, 12:06 AM Dry 42.3°F None None 6 mph 9 mph SE 23.0°F 47% 42.8°F > 1/2 mi
I 80 Remount Road 340.5 Apr 22, 2024, 12:06 AM Dry 42.6°F None None 10 mph 17 mph S 23.0°F 37% 48.2°F > 1/2 mi
I 80 Otto 347.69 Apr 22, 2024, 12:06 AM Dry 43.5°F None None 11 mph 13 mph SW 24.8°F 42% 46.4°F > 1/2 mi
I 80 MP 353 353 Apr 22, 2024, 12:06 AM Dry 44.1°F None None 17 mph 18 mph SW 30.2°F 54% 46.4°F > 1/2 mi
I 80 Cheyenne East 373 Apr 22, 2024, 12:06 AM Dry 46.6°F None None 11 mph 13 mph SW 35.6°F 67% 46.4°F > 1/2 mi
I 90 Montana State Line 0.1 Apr 22, 2024, 12:06 AM Chemically Wet 48.9°F Light Slight 12 mph 14 mph NW 44.6°F 89% 46.4°F > 1/2 mi
I 90 Pompey Creek 35.3 Apr 22, 2024, 12:06 AM Dry 49.8°F None None 17 mph 25 mph NW 33.8°F 50% 51.8°F > 1/2 mi
I 90 Sheridan/Johnson County Line 41.33 Jan 29, 2023, 07:04 PM                      
I 90 Piney Creek Interchange 44.7 Apr 22, 2024, 12:06 AM Dry 52.7°F None 15 mph 22 mph NW 35.6°F 60% 50.0°F  
I 90 Kearny Divide 45.33 Aug 25, 2023, 12:02 PM                      
I 90 Indian Creek Road 83.3 Apr 22, 2024, 12:06 AM Dry 50.4°F None None 16 mph 19 mph N 30.2°F 45% 51.8°F > 1/2 mi
I 90 Dead Horse 91.5 Apr 22, 2024, 12:06 AM Dry 57.7°F None None 12 mph 19 mph SW 24.8°F 30% 53.6°F > 1/2 mi
I 90 Mile Marker 108 108 Apr 22, 2024, 12:06 AM Dry 50.0°F None None 14 mph 18 mph NW 30.2°F 42% 51.8°F > 1/2 mi
I 90 Inyan Kara 170.5 Apr 22, 2024, 12:06 AM Dry 52.5°F None 1 mph 7 mph SE 30.2°F 44% 50.0°F  
I 90 Beulah 205.9 Apr 22, 2024, 12:06 AM Dry 53.6°F None None 14 mph 19 mph SW 26.6°F 30% 57.2°F > 1/2 mi
US 14 Ucross 27.83 Dec 12, 2023, 09:38 AM                      
US 14 Granite Pass 38.95 Apr 22, 2024, 12:06 AM N/A   None 3 mph 5 mph NE 24.8°F 67% 35.6°F < 1/4 mi
US 14 Sunny Divide 185.89 Apr 22, 2024, 12:06 AM Dry 52.7°F None None 15 mph 24 mph SW 28.4°F 31% 59.0°F > 1/2 mi
US 16 Big Horn County Line 44.01 Apr 22, 2024, 12:06 AM Dry 41.2°F None None NaN mph NaN mph N   NaN%   > 1/2 mi
US 191 Farson 40.45 Apr 22, 2024, 12:06 AM Wet 43.3°F None 1 mph 1 mph NW 23.0°F 49% 41.0°F  
US 191 Warren Bridge 119.9 Apr 22, 2024, 12:06 AM N/A   None None 12 mph 17 mph SW 30.2°F 60% 42.8°F > 1/2 mi
US 20 Natrona 30 Apr 22, 2024, 12:06 AM N/A   None None 10 mph 11 mph W 30.2°F 58% 42.8°F > 1/2 mi
US 20 Hiland 57.4 Apr 22, 2024, 12:06 AM Dry 47.8°F None None 17 mph 21 mph SW 28.4°F 48% 46.4°F > 1/2 mi
US 20 Van Tassell 57.85 Apr 22, 2024, 12:06 AM Dry 48.4°F None None 7 mph 14 mph S 37.4°F 72% 46.4°F > 1/2 mi
US 26 Wind River Lake 26.05 Apr 22, 2024, 12:06 AM Wet 38.1°F None None 13 mph 20 mph N 12.2°F 38% 33.8°F > 1/2 mi
US 287 Pumpkin Vine 420.4 Apr 21, 2024, 10:50 AM                      
US 30 Sage Junction 34 Apr 22, 2024, 12:06 AM Dry 52.5°F None None 2 mph 6 mph SW 33.8°F 59% 46.4°F > 1/2 mi
US 30 Nugget Canyon 39.7 Apr 22, 2024, 12:06 AM Dry 53.4°F None None 3 mph 6 mph N 32.0°F 52% 50.0°F > 1/2 mi
US 85 Gun Barrel 46.8 Apr 22, 2024, 12:06 AM Dry 46.4°F None None 19 mph 25 mph SW 35.6°F 63% 48.2°F > 1/2 mi
US 85 Four Corners 247.2 Apr 16, 2024, 05:06 PM                      
WY 120 Meeteetse 61.5 Apr 22, 2024, 12:06 AM Dry   None 22 mph 27 mph NW -2.2°F 9% 53.6°F > 1/2 mi
WY 210 Wildcat Trail 21.52 Apr 22, 2024, 12:06 AM Dry 43.9°F None None 12 mph 16 mph W 21.2°F 34% 48.2°F > 1/2 mi
WY 210 Hynds Lodge Road 24.55 Apr 22, 2024, 12:06 AM N/A   None None 3 mph 7 mph S 21.2°F 36% 46.4°F > 1/2 mi
WY 22 Teton Pass 11.2 Feb 8, 2024, 11:10 AM                      
WY 220 Pathfinder Hill 80.1 Apr 22, 2024, 12:06 AM Dry 49.3°F None 14 mph 21 mph SW 24.8°F 33% 51.8°F  
WY 230 Skyline 230 113.2 Apr 22, 2024, 12:06 AM N/A   None None 9 mph 17 mph NW 21.2°F 38% 44.6°F > 1/2 mi
WY 258 Outer Drive 13.77 Apr 22, 2024, 12:06 AM Dry 54.3°F None None 25 mph 35 mph SW 24.8°F 24% 60.8°F > 1/2 mi
WY 28 New South Pass 41.4 Apr 22, 2024, 12:06 AM Dry 40.3°F None None 22 mph 34 mph W 30.2°F 63% 42.8°F > 1/2 mi
WY 28 Lower Red Canyon 59.71 Apr 22, 2024, 12:06 AM Dry 50.0°F None None 5 mph 12 mph W 32.0°F 43% 53.6°F > 1/2 mi
WY 296 Chief Joseph 32.96 Apr 22, 2024, 12:06 AM N/A   None None 9 mph 11 mph SE 32.0°F 92% 33.8°F > 1/2 mi
WY 372 Shute Creek 34 Apr 22, 2024, 12:06 AM N/A   None None 6 mph 8 mph SW   NaN% 42.8°F > 1/2 mi
WY 387 Pine Tree Junction 131.79 Apr 22, 2024, 12:06 AM Dry 50.0°F None None 11 mph 20 mph NW 26.6°F 36% 53.6°F > 1/2 mi
WY 487 Shirley Rim 37 Apr 22, 2024, 12:06 AM Dry 48.7°F None None 14 mph 19 mph W 24.8°F 38% 48.2°F > 1/2 mi
WY 59 Belle Fourche 87 Apr 22, 2024, 12:06 AM Dry 51.3°F None 9 mph 12 mph NW 32.0°F 54% 48.2°F  
WY 789 Beaver Rim 48.1 Apr 22, 2024, 12:06 AM     None None 16 mph 20 mph SW -4.0°F 9% 50.0°F > 1/2 mi